sensor_id;sensor_type;location;lat;lon;timestamp;temperature;humidity
38239;DHT22;24035;48.900;9.188;2024-03-22T00:02:07;7.70;1.00
38239;DHT22;24035;48.900;9.188;2024-03-22T00:04:34;7.60;1.00
38239;DHT22;24035;48.900;9.188;2024-03-22T00:07:00;7.70;99.90
38239;DHT22;24035;48.900;9.188;2024-03-22T00:09:25;7.70;99.90
38239;DHT22;24035;48.900;9.188;2024-03-22T00:11:51;7.60;99.90
38239;DHT22;24035;48.900;9.188;2024-03-22T00:14:17;7.50;99.90
38239;DHT22;24035;48.900;9.188;2024-03-22T00:16:42;7.50;1.00
38239;DHT22;24035;48.900;9.188;2024-03-22T00:19:08;7.50;1.00
38239;DHT22;24035;48.900;9.188;2024-03-22T00:21:34;7.40;1.00
38239;DHT22;24035;48.900;9.188;2024-03-22T00:23:59;7.30;1.00
38239;DHT22;24035;48.900;9.188;2024-03-22T00:26:26;7.30;1.00
38239;DHT22;24035;48.900;9.188;2024-03-22T00:28:52;7.30;1.00
38239;DHT22;24035;48.900;9.188;2024-03-22T00:31:18;7.40;99.90
38239;DHT22;24035;48.900;9.188;2024-03-22T00:33:44;7.30;1.00
38239;DHT22;24035;48.900;9.188;2024-03-22T00:36:10;7.20;1.00
38239;DHT22;24035;48.900;9.188;2024-03-22T00:38:36;7.10;1.00
38239;DHT22;24035;48.900;9.188;2024-03-22T00:41:02;7.00;1.00
38239;DHT22;24035;48.900;9.188;2024-03-22T00:43:27;7.00;1.00
38239;DHT22;24035;48.900;9.188;2024-03-22T00:45:53;7.00;1.00
38239;DHT22;24035;48.900;9.188;2024-03-22T00:48:19;6.90;99.90
38239;DHT22;24035;48.900;9.188;2024-03-22T00:50:44;6.90;1.00
38239;DHT22;24035;48.900;9.188;2024-03-22T00:53:10;6.80;1.00
38239;DHT22;24035;48.900;9.188;2024-03-22T00:55:37;6.70;99.90
38239;DHT22;24035;48.900;9.188;2024-03-22T00:58:03;6.60;99.90
38239;DHT22;24035;48.900;9.188;2024-03-22T01:00:28;6.60;99.90
38239;DHT22;24035;48.900;9.188;2024-03-22T01:02:54;6.60;99.90
38239;DHT22;24035;48.900;9.188;2024-03-22T01:05:20;6.50;1.00
38239;DHT22;24035;48.900;9.188;2024-03-22T01:07:46;6.50;1.00
38239;DHT22;24035;48.900;9.188;2024-03-22T01:10:12;6.40;1.00
38239;DHT22;24035;48.900;9.188;2024-03-22T01:12:38;6.30;1.00
38239;DHT22;24035;48.900;9.188;2024-03-22T01:15:06;6.30;1.00
38239;DHT22;24035;48.900;9.188;2024-03-22T01:17:32;6.40;99.90
38239;DHT22;24035;48.900;9.188;2024-03-22T01:19:58;6.30;99.90
38239;DHT22;24035;48.900;9.188;2024-03-22T01:22:23;6.40;1.00
38239;DHT22;24035;48.900;9.188;2024-03-22T01:24:49;6.40;1.00
38239;DHT22;24035;48.900;9.188;2024-03-22T01:27:15;6.40;99.90
38239;DHT22;24035;48.900;9.188;2024-03-22T01:29:40;6.30;99.90
38239;DHT22;24035;48.900;9.188;2024-03-22T01:32:06;6.20;99.90
38239;DHT22;24035;48.900;9.188;2024-03-22T01:34:32;6.30;1.00
38239;DHT22;24035;48.900;9.188;2024-03-22T01:36:58;6.30;1.00
38239;DHT22;24035;48.900;9.188;2024-03-22T01:39:24;6.30;1.00
38239;DHT22;24035;48.900;9.188;2024-03-22T01:41:52;6.30;1.00
38239;DHT22;24035;48.900;9.188;2024-03-22T01:44:18;6.20;1.00
38239;DHT22;24035;48.900;9.188;2024-03-22T01:46:45;6.10;99.90
38239;DHT22;24035;48.900;9.188;2024-03-22T01:49:14;6.10;99.90
38239;DHT22;24035;48.900;9.188;2024-03-22T01:51:42;6.00;99.90
38239;DHT22;24035;48.900;9.188;2024-03-22T01:54:09;6.00;1.00
38239;DHT22;24035;48.900;9.188;2024-03-22T01:56:37;6.00;1.00
38239;DHT22;24035;48.900;9.188;2024-03-22T01:59:07;6.00;1.00
38239;DHT22;24035;48.900;9.188;2024-03-22T02:01:33;6.00;1.00
38239;DHT22;24035;48.900;9.188;2024-03-22T02:04:00;6.00;1.00
38239;DHT22;24035;48.900;9.188;2024-03-22T02:06:25;6.00;1.00
38239;DHT22;24035;48.900;9.188;2024-03-22T02:08:51;5.90;1.00
38239;DHT22;24035;48.900;9.188;2024-03-22T02:11:17;5.90;1.00
38239;DHT22;24035;48.900;9.188;2024-03-22T02:13:44;6.10;99.90
38239;DHT22;24035;48.900;9.188;2024-03-22T02:16:10;6.20;99.90
38239;DHT22;24035;48.900;9.188;2024-03-22T02:18:35;6.30;99.90
38239;DHT22;24035;48.900;9.188;2024-03-22T02:21:02;6.30;99.90
38239;DHT22;24035;48.900;9.188;2024-03-22T02:23:35;6.30;1.00
38239;DHT22;24035;48.900;9.188;2024-03-22T02:26:01;6.40;1.00
38239;DHT22;24035;48.900;9.188;2024-03-22T02:28:27;6.40;1.00
38239;DHT22;24035;48.900;9.188;2024-03-22T02:30:53;6.40;99.90
38239;DHT22;24035;48.900;9.188;2024-03-22T02:33:19;6.40;28.00
38239;DHT22;24035;48.900;9.188;2024-03-22T02:35:49;6.30;99.90
38239;DHT22;24035;48.900;9.188;2024-03-22T02:38:16;6.40;99.90
38239;DHT22;24035;48.900;9.188;2024-03-22T02:40:46;6.50;99.90
38239;DHT22;24035;48.900;9.188;2024-03-22T02:43:12;6.40;1.10
38239;DHT22;24035;48.900;9.188;2024-03-22T02:45:38;6.50;1.00
38239;DHT22;24035;48.900;9.188;2024-03-22T02:48:04;6.50;99.90
38239;DHT22;24035;48.900;9.188;2024-03-22T02:50:34;6.40;87.50
38239;DHT22;24035;48.900;9.188;2024-03-22T02:53:00;6.40;1.00
38239;DHT22;24035;48.900;9.188;2024-03-22T02:55:26;6.30;1.00
38239;DHT22;24035;48.900;9.188;2024-03-22T02:57:52;6.30;1.00
38239;DHT22;24035;48.900;9.188;2024-03-22T03:00:18;6.30;99.90
38239;DHT22;24035;48.900;9.188;2024-03-22T03:02:45;6.40;1.00
38239;DHT22;24035;48.900;9.188;2024-03-22T03:05:10;6.50;1.00
38239;DHT22;24035;48.900;9.188;2024-03-22T03:07:36;6.50;1.00
38239;DHT22;24035;48.900;9.188;2024-03-22T03:10:02;6.60;1.00
38239;DHT22;24035;48.900;9.188;2024-03-22T03:12:28;6.80;1.00
38239;DHT22;24035;48.900;9.188;2024-03-22T03:14:54;6.90;1.00
38239;DHT22;24035;48.900;9.188;2024-03-22T03:17:19;7.00;1.00
38239;DHT22;24035;48.900;9.188;2024-03-22T03:19:45;7.00;99.90
38239;DHT22;24035;48.900;9.188;2024-03-22T03:22:10;7.10;1.00
38239;DHT22;24035;48.900;9.188;2024-03-22T03:24:36;7.10;1.00
38239;DHT22;24035;48.900;9.188;2024-03-22T03:27:02;7.10;99.90
38239;DHT22;24035;48.900;9.188;2024-03-22T03:29:28;7.10;99.90
38239;DHT22;24035;48.900;9.188;2024-03-22T03:31:54;7.10;1.00
38239;DHT22;24035;48.900;9.188;2024-03-22T03:34:19;7.20;1.00
38239;DHT22;24035;48.900;9.188;2024-03-22T03:36:46;7.20;1.00
38239;DHT22;24035;48.900;9.188;2024-03-22T03:39:12;7.10;99.90
38239;DHT22;24035;48.900;9.188;2024-03-22T03:41:37;7.10;8.70
38239;DHT22;24035;48.900;9.188;2024-03-22T03:44:03;7.00;1.00
38239;DHT22;24035;48.900;9.188;2024-03-22T03:46:29;6.80;1.00
38239;DHT22;24035;48.900;9.188;2024-03-22T03:48:54;6.60;1.00
38239;DHT22;24035;48.900;9.188;2024-03-22T03:51:20;6.50;1.00
38239;DHT22;24035;48.900;9.188;2024-03-22T03:53:46;6.50;1.00
38239;DHT22;24035;48.900;9.188;2024-03-22T03:56:11;6.40;1.00
38239;DHT22;24035;48.900;9.188;2024-03-22T03:58:37;6.30;61.20
38239;DHT22;24035;48.900;9.188;2024-03-22T04:01:07;6.40;99.90
38239;DHT22;24035;48.900;9.188;2024-03-22T04:03:32;6.40;99.90
38239;DHT22;24035;48.900;9.188;2024-03-22T04:05:58;6.30;99.90
38239;DHT22;24035;48.900;9.188;2024-03-22T04:08:25;6.30;99.90
38239;DHT22;24035;48.900;9.188;2024-03-22T04:10:55;6.40;1.00
38239;DHT22;24035;48.900;9.188;2024-03-22T04:13:25;6.40;99.90
38239;DHT22;24035;48.900;9.188;2024-03-22T04:15:51;6.30;99.90
38239;DHT22;24035;48.900;9.188;2024-03-22T04:18:17;6.20;1.00
38239;DHT22;24035;48.900;9.188;2024-03-22T04:20:52;6.20;1.00
38239;DHT22;24035;48.900;9.188;2024-03-22T04:23:18;6.20;1.00
38239;DHT22;24035;48.900;9.188;2024-03-22T04:25:55;6.20;99.90
38239;DHT22;24035;48.900;9.188;2024-03-22T04:28:21;6.20;99.90
38239;DHT22;24035;48.900;9.188;2024-03-22T04:31:00;6.30;99.90
38239;DHT22;24035;48.900;9.188;2024-03-22T04:33:26;6.40;99.90
38239;DHT22;24035;48.900;9.188;2024-03-22T04:35:56;6.30;99.90
38239;DHT22;24035;48.900;9.188;2024-03-22T04:38:22;6.40;99.90
38239;DHT22;24035;48.900;9.188;2024-03-22T04:40:48;6.40;99.90
38239;DHT22;24035;48.900;9.188;2024-03-22T04:43:17;6.40;99.90
38239;DHT22;24035;48.900;9.188;2024-03-22T04:45:43;6.30;99.90
38239;DHT22;24035;48.900;9.188;2024-03-22T04:48:09;6.30;99.90
38239;DHT22;24035;48.900;9.188;2024-03-22T04:50:35;6.40;99.90
38239;DHT22;24035;48.900;9.188;2024-03-22T04:53:02;6.50;1.00
38239;DHT22;24035;48.900;9.188;2024-03-22T04:55:27;6.50;99.90
38239;DHT22;24035;48.900;9.188;2024-03-22T04:57:53;6.40;8.80
38239;DHT22;24035;48.900;9.188;2024-03-22T05:00:19;6.50;52.10
38239;DHT22;24035;48.900;9.188;2024-03-22T05:02:45;6.50;1.00
38239;DHT22;24035;48.900;9.188;2024-03-22T05:05:11;6.50;1.00
38239;DHT22;24035;48.900;9.188;2024-03-22T05:07:38;6.50;1.00
38239;DHT22;24035;48.900;9.188;2024-03-22T05:10:04;6.60;1.00
38239;DHT22;24035;48.900;9.188;2024-03-22T05:12:36;6.70;1.00
38239;DHT22;24035;48.900;9.188;2024-03-22T05:15:03;6.50;1.00
38239;DHT22;24035;48.900;9.188;2024-03-22T05:17:29;6.60;99.90
38239;DHT22;24035;48.900;9.188;2024-03-22T05:19:57;6.60;1.00
38239;DHT22;24035;48.900;9.188;2024-03-22T05:22:23;6.60;18.20
38239;DHT22;24035;48.900;9.188;2024-03-22T05:24:49;6.50;87.90
38239;DHT22;24035;48.900;9.188;2024-03-22T05:27:14;6.50;80.60
38239;DHT22;24035;48.900;9.188;2024-03-22T05:29:40;6.60;99.90
38239;DHT22;24035;48.900;9.188;2024-03-22T05:32:06;6.70;99.90
38239;DHT22;24035;48.900;9.188;2024-03-22T05:34:32;6.80;99.90
38239;DHT22;24035;48.900;9.188;2024-03-22T05:36:58;6.70;1.00
38239;DHT22;24035;48.900;9.188;2024-03-22T05:39:24;6.80;1.00
38239;DHT22;24035;48.900;9.188;2024-03-22T05:41:50;6.80;1.00
38239;DHT22;24035;48.900;9.188;2024-03-22T05:44:15;6.90;1.00
38239;DHT22;24035;48.900;9.188;2024-03-22T05:46:41;6.90;1.00
38239;DHT22;24035;48.900;9.188;2024-03-22T05:49:07;7.00;1.00
38239;DHT22;24035;48.900;9.188;2024-03-22T05:51:33;7.10;99.90
38239;DHT22;24035;48.900;9.188;2024-03-22T05:53:59;7.10;1.00
38239;DHT22;24035;48.900;9.188;2024-03-22T05:56:25;7.20;1.00
38239;DHT22;24035;48.900;9.188;2024-03-22T05:58:50;7.10;1.00
38239;DHT22;24035;48.900;9.188;2024-03-22T06:01:16;7.20;1.00
38239;DHT22;24035;48.900;9.188;2024-03-22T06:03:42;7.20;1.00
38239;DHT22;24035;48.900;9.188;2024-03-22T06:06:07;7.20;1.00
38239;DHT22;24035;48.900;9.188;2024-03-22T06:08:33;7.10;1.00
38239;DHT22;24035;48.900;9.188;2024-03-22T06:11:01;7.10;1.00
38239;DHT22;24035;48.900;9.188;2024-03-22T06:13:26;7.10;1.00
38239;DHT22;24035;48.900;9.188;2024-03-22T06:15:53;7.20;8.10
38239;DHT22;24035;48.900;9.188;2024-03-22T06:18:19;7.20;1.00
38239;DHT22;24035;48.900;9.188;2024-03-22T06:20:45;7.30;1.00
38239;DHT22;24035;48.900;9.188;2024-03-22T06:23:11;7.40;1.00
38239;DHT22;24035;48.900;9.188;2024-03-22T06:25:36;7.40;1.00
38239;DHT22;24035;48.900;9.188;2024-03-22T06:28:02;7.40;99.90
38239;DHT22;24035;48.900;9.188;2024-03-22T06:30:28;7.40;99.90
38239;DHT22;24035;48.900;9.188;2024-03-22T06:32:54;7.60;99.90
38239;DHT22;24035;48.900;9.188;2024-03-22T06:35:22;7.70;1.00
38239;DHT22;24035;48.900;9.188;2024-03-22T06:37:48;7.90;99.90
38239;DHT22;24035;48.900;9.188;2024-03-22T06:40:15;8.10;1.00
38239;DHT22;24035;48.900;9.188;2024-03-22T06:42:40;8.30;99.90
38239;DHT22;24035;48.900;9.188;2024-03-22T06:45:07;8.40;99.90
38239;DHT22;24035;48.900;9.188;2024-03-22T06:47:32;8.60;1.00
38239;DHT22;24035;48.900;9.188;2024-03-22T06:49:58;8.80;1.00
38239;DHT22;24035;48.900;9.188;2024-03-22T06:52:24;8.90;99.90
38239;DHT22;24035;48.900;9.188;2024-03-22T06:54:50;9.10;99.90
38239;DHT22;24035;48.900;9.188;2024-03-22T06:57:15;9.30;99.90
38239;DHT22;24035;48.900;9.188;2024-03-22T06:59:41;9.40;1.00
38239;DHT22;24035;48.900;9.188;2024-03-22T07:02:07;9.50;1.00
38239;DHT22;24035;48.900;9.188;2024-03-22T07:04:35;9.60;1.00
38239;DHT22;24035;48.900;9.188;2024-03-22T07:07:01;9.60;1.00
38239;DHT22;24035;48.900;9.188;2024-03-22T07:09:27;9.70;1.00
38239;DHT22;24035;48.900;9.188;2024-03-22T07:11:55;9.80;1.00
38239;DHT22;24035;48.900;9.188;2024-03-22T07:14:21;9.90;1.00
38239;DHT22;24035;48.900;9.188;2024-03-22T07:16:50;9.90;1.00
38239;DHT22;24035;48.900;9.188;2024-03-22T07:19:16;10.00;1.00
38239;DHT22;24035;48.900;9.188;2024-03-22T07:21:41;10.10;99.90
38239;DHT22;24035;48.900;9.188;2024-03-22T07:24:07;10.30;99.90
38239;DHT22;24035;48.900;9.188;2024-03-22T07:26:33;10.40;99.90
38239;DHT22;24035;48.900;9.188;2024-03-22T07:28:58;10.60;5.10
38239;DHT22;24035;48.900;9.188;2024-03-22T07:31:24;10.80;1.00
38239;DHT22;24035;48.900;9.188;2024-03-22T07:33:50;10.90;1.00
38239;DHT22;24035;48.900;9.188;2024-03-22T07:36:15;11.00;1.00
38239;DHT22;24035;48.900;9.188;2024-03-22T07:38:42;11.00;1.00
38239;DHT22;24035;48.900;9.188;2024-03-22T07:41:08;11.10;1.00
38239;DHT22;24035;48.900;9.188;2024-03-22T07:43:34;11.10;1.00
38239;DHT22;24035;48.900;9.188;2024-03-22T07:45:59;11.30;1.00
38239;DHT22;24035;48.900;9.188;2024-03-22T07:48:25;11.40;1.00
38239;DHT22;24035;48.900;9.188;2024-03-22T07:51:00;11.50;1.00
38239;DHT22;24035;48.900;9.188;2024-03-22T07:53:27;11.60;1.00
38239;DHT22;24035;48.900;9.188;2024-03-22T07:55:52;11.60;1.00
38239;DHT22;24035;48.900;9.188;2024-03-22T07:58:19;11.70;1.00
38239;DHT22;24035;48.900;9.188;2024-03-22T08:00:45;11.90;1.00
38239;DHT22;24035;48.900;9.188;2024-03-22T08:03:15;12.10;99.90
38239;DHT22;24035;48.900;9.188;2024-03-22T08:05:41;12.10;99.90
38239;DHT22;24035;48.900;9.188;2024-03-22T08:08:07;12.40;99.90
38239;DHT22;24035;48.900;9.188;2024-03-22T08:10:33;12.60;99.90
38239;DHT22;24035;48.900;9.188;2024-03-22T08:12:59;12.90;99.90
38239;DHT22;24035;48.900;9.188;2024-03-22T08:15:26;13.20;1.00
38239;DHT22;24035;48.900;9.188;2024-03-22T08:17:52;13.60;1.00
38239;DHT22;24035;48.900;9.188;2024-03-22T08:20:17;14.00;1.00
38239;DHT22;24035;48.900;9.188;2024-03-22T08:22:43;14.40;1.00
38239;DHT22;24035;48.900;9.188;2024-03-22T08:25:09;14.70;1.00
38239;DHT22;24035;48.900;9.188;2024-03-22T08:27:35;14.80;1.00
38239;DHT22;24035;48.900;9.188;2024-03-22T08:30:01;15.10;1.00
38239;DHT22;24035;48.900;9.188;2024-03-22T08:32:27;15.50;1.00
38239;DHT22;24035;48.900;9.188;2024-03-22T08:34:52;15.80;1.00
38239;DHT22;24035;48.900;9.188;2024-03-22T08:37:18;15.80;99.90
38239;DHT22;24035;48.900;9.188;2024-03-22T08:39:44;16.00;99.90
38239;DHT22;24035;48.900;9.188;2024-03-22T08:42:10;16.30;99.90
38239;DHT22;24035;48.900;9.188;2024-03-22T08:44:36;16.50;99.90
38239;DHT22;24035;48.900;9.188;2024-03-22T08:47:01;16.60;99.90
38239;DHT22;24035;48.900;9.188;2024-03-22T08:49:27;16.80;99.90
38239;DHT22;24035;48.900;9.188;2024-03-22T08:51:53;16.70;99.90
38239;DHT22;24035;48.900;9.188;2024-03-22T08:54:19;16.90;99.90
38239;DHT22;24035;48.900;9.188;2024-03-22T08:56:44;16.90;99.90
38239;DHT22;24035;48.900;9.188;2024-03-22T08:59:11;17.00;99.90
38239;DHT22;24035;48.900;9.188;2024-03-22T09:01:37;17.00;99.90
38239;DHT22;24035;48.900;9.188;2024-03-22T09:04:03;17.00;99.90
38239;DHT22;24035;48.900;9.188;2024-03-22T09:06:29;17.00;99.90
38239;DHT22;24035;48.900;9.188;2024-03-22T09:08:55;17.20;99.90
38239;DHT22;24035;48.900;9.188;2024-03-22T09:11:24;17.20;99.90
38239;DHT22;24035;48.900;9.188;2024-03-22T09:13:53;17.30;99.90
38239;DHT22;24035;48.900;9.188;2024-03-22T09:16:20;17.30;99.90
38239;DHT22;24035;48.900;9.188;2024-03-22T09:18:46;17.10;99.90
38239;DHT22;24035;48.900;9.188;2024-03-22T09:21:12;17.20;99.90
38239;DHT22;24035;48.900;9.188;2024-03-22T09:23:38;17.30;99.90
38239;DHT22;24035;48.900;9.188;2024-03-22T09:26:03;17.50;99.90
38239;DHT22;24035;48.900;9.188;2024-03-22T09:28:29;17.60;99.90
38239;DHT22;24035;48.900;9.188;2024-03-22T09:30:55;17.60;99.90
38239;DHT22;24035;48.900;9.188;2024-03-22T09:33:22;17.50;99.90
38239;DHT22;24035;48.900;9.188;2024-03-22T09:35:47;17.60;99.90
38239;DHT22;24035;48.900;9.188;2024-03-22T09:38:13;17.60;99.90
38239;DHT22;24035;48.900;9.188;2024-03-22T09:40:41;18.00;99.90
38239;DHT22;24035;48.900;9.188;2024-03-22T09:43:07;18.40;99.90
38239;DHT22;24035;48.900;9.188;2024-03-22T09:45:33;18.50;99.90
38239;DHT22;24035;48.900;9.188;2024-03-22T09:47:59;18.40;99.90
38239;DHT22;24035;48.900;9.188;2024-03-22T09:50:26;18.10;99.90
38239;DHT22;24035;48.900;9.188;2024-03-22T09:52:52;18.00;99.90
38239;DHT22;24035;48.900;9.188;2024-03-22T09:55:24;18.50;99.90
38239;DHT22;24035;48.900;9.188;2024-03-22T09:57:50;18.40;99.90
38239;DHT22;24035;48.900;9.188;2024-03-22T10:00:19;18.60;99.90
38239;DHT22;24035;48.900;9.188;2024-03-22T10:02:49;18.70;99.90
38239;DHT22;24035;48.900;9.188;2024-03-22T10:05:15;18.60;99.90
38239;DHT22;24035;48.900;9.188;2024-03-22T10:07:43;18.80;99.90
38239;DHT22;24035;48.900;9.188;2024-03-22T10:10:10;19.10;99.90
38239;DHT22;24035;48.900;9.188;2024-03-22T10:12:36;19.00;99.90
38239;DHT22;24035;48.900;9.188;2024-03-22T10:15:02;18.40;99.90
38239;DHT22;24035;48.900;9.188;2024-03-22T10:17:30;18.50;99.90
38239;DHT22;24035;48.900;9.188;2024-03-22T10:19:56;18.70;99.90
38239;DHT22;24035;48.900;9.188;2024-03-22T10:22:22;18.50;99.90
38239;DHT22;24035;48.900;9.188;2024-03-22T10:24:47;17.90;99.90
38239;DHT22;24035;48.900;9.188;2024-03-22T10:27:13;17.70;99.90
38239;DHT22;24035;48.900;9.188;2024-03-22T10:29:39;17.70;99.90
38239;DHT22;24035;48.900;9.188;2024-03-22T10:32:06;17.60;99.90
38239;DHT22;24035;48.900;9.188;2024-03-22T10:34:34;17.80;99.90
38239;DHT22;24035;48.900;9.188;2024-03-22T10:37:00;17.90;99.90
38239;DHT22;24035;48.900;9.188;2024-03-22T10:39:30;18.10;99.90
38239;DHT22;24035;48.900;9.188;2024-03-22T10:41:56;18.30;99.90
38239;DHT22;24035;48.900;9.188;2024-03-22T10:44:22;18.30;99.90
38239;DHT22;24035;48.900;9.188;2024-03-22T10:46:49;18.40;99.90
38239;DHT22;24035;48.900;9.188;2024-03-22T10:49:19;18.50;99.90
38239;DHT22;24035;48.900;9.188;2024-03-22T10:51:59;18.90;99.90
38239;DHT22;24035;48.900;9.188;2024-03-22T10:54:45;19.10;99.90
38239;DHT22;24035;48.900;9.188;2024-03-22T10:57:14;19.10;99.90
38239;DHT22;24035;48.900;9.188;2024-03-22T10:59:42;19.20;99.90
38239;DHT22;24035;48.900;9.188;2024-03-22T11:02:11;19.00;99.90
38239;DHT22;24035;48.900;9.188;2024-03-22T11:04:37;19.00;99.90
38239;DHT22;24035;48.900;9.188;2024-03-22T11:07:02;18.60;99.90
38239;DHT22;24035;48.900;9.188;2024-03-22T11:09:29;18.60;99.90
38239;DHT22;24035;48.900;9.188;2024-03-22T11:11:56;18.80;99.90
38239;DHT22;24035;48.900;9.188;2024-03-22T11:14:26;19.00;99.90
38239;DHT22;24035;48.900;9.188;2024-03-22T11:16:52;19.20;99.90
38239;DHT22;24035;48.900;9.188;2024-03-22T11:19:20;19.50;99.90
38239;DHT22;24035;48.900;9.188;2024-03-22T11:21:46;19.50;99.90
38239;DHT22;24035;48.900;9.188;2024-03-22T11:24:12;19.80;99.90
38239;DHT22;24035;48.900;9.188;2024-03-22T11:26:38;19.70;99.90
38239;DHT22;24035;48.900;9.188;2024-03-22T11:29:04;20.00;99.90
38239;DHT22;24035;48.900;9.188;2024-03-22T11:31:29;20.20;99.90
38239;DHT22;24035;48.900;9.188;2024-03-22T11:33:56;20.40;99.90
38239;DHT22;24035;48.900;9.188;2024-03-22T11:36:25;20.30;99.90
38239;DHT22;24035;48.900;9.188;2024-03-22T11:38:50;20.50;99.90
38239;DHT22;24035;48.900;9.188;2024-03-22T11:41:28;21.00;99.90
38239;DHT22;24035;48.900;9.188;2024-03-22T11:43:55;21.10;99.90
38239;DHT22;24035;48.900;9.188;2024-03-22T11:46:24;21.10;99.90
38239;DHT22;24035;48.900;9.188;2024-03-22T11:48:53;21.50;99.90
38239;DHT22;24035;48.900;9.188;2024-03-22T11:51:19;21.50;99.90
38239;DHT22;24035;48.900;9.188;2024-03-22T11:53:52;21.30;99.90
38239;DHT22;24035;48.900;9.188;2024-03-22T11:56:24;20.70;99.90
38239;DHT22;24035;48.900;9.188;2024-03-22T11:58:58;20.40;99.90
38239;DHT22;24035;48.900;9.188;2024-03-22T12:01:23;20.60;99.90
38239;DHT22;24035;48.900;9.188;2024-03-22T12:03:49;20.90;99.90
38239;DHT22;24035;48.900;9.188;2024-03-22T12:06:15;21.10;99.90
38239;DHT22;24035;48.900;9.188;2024-03-22T12:08:41;21.50;99.90
38239;DHT22;24035;48.900;9.188;2024-03-22T12:11:08;21.60;99.90
38239;DHT22;24035;48.900;9.188;2024-03-22T12:13:34;21.90;99.90
38239;DHT22;24035;48.900;9.188;2024-03-22T12:16:00;22.20;99.90
38239;DHT22;24035;48.900;9.188;2024-03-22T12:18:26;21.90;99.90
38239;DHT22;24035;48.900;9.188;2024-03-22T12:20:52;21.60;99.90
38239;DHT22;24035;48.900;9.188;2024-03-22T12:23:18;21.00;99.90
38239;DHT22;24035;48.900;9.188;2024-03-22T12:25:43;20.60;99.90
38239;DHT22;24035;48.900;9.188;2024-03-22T12:28:12;20.90;99.90
38239;DHT22;24035;48.900;9.188;2024-03-22T12:30:38;20.70;99.90
38239;DHT22;24035;48.900;9.188;2024-03-22T12:33:04;20.90;99.90
38239;DHT22;24035;48.900;9.188;2024-03-22T12:35:34;21.30;99.90
38239;DHT22;24035;48.900;9.188;2024-03-22T12:37:59;21.50;99.90
38239;DHT22;24035;48.900;9.188;2024-03-22T12:40:25;22.00;99.90
38239;DHT22;24035;48.900;9.188;2024-03-22T12:42:52;22.00;99.90
38239;DHT22;24035;48.900;9.188;2024-03-22T12:45:17;21.80;99.90
38239;DHT22;24035;48.900;9.188;2024-03-22T12:47:43;21.40;99.90
38239;DHT22;24035;48.900;9.188;2024-03-22T12:50:09;21.10;99.90
38239;DHT22;24035;48.900;9.188;2024-03-22T12:52:35;21.10;99.90
38239;DHT22;24035;48.900;9.188;2024-03-22T12:55:01;21.00;99.90
38239;DHT22;24035;48.900;9.188;2024-03-22T12:57:26;21.30;99.90
38239;DHT22;24035;48.900;9.188;2024-03-22T12:59:52;21.60;99.90
38239;DHT22;24035;48.900;9.188;2024-03-22T13:02:18;21.50;99.90
38239;DHT22;24035;48.900;9.188;2024-03-22T13:04:43;20.90;99.90
38239;DHT22;24035;48.900;9.188;2024-03-22T13:09:39;20.70;99.90
38239;DHT22;24035;48.900;9.188;2024-03-22T13:12:05;20.40;99.90
38239;DHT22;24035;48.900;9.188;2024-03-22T13:14:33;20.70;99.90
38239;DHT22;24035;48.900;9.188;2024-03-22T13:16:58;20.50;99.90
38239;DHT22;24035;48.900;9.188;2024-03-22T13:19:24;20.60;99.90
38239;DHT22;24035;48.900;9.188;2024-03-22T13:21:50;20.60;99.90
38239;DHT22;24035;48.900;9.188;2024-03-22T13:24:16;20.50;99.90
38239;DHT22;24035;48.900;9.188;2024-03-22T13:26:41;20.40;99.90
38239;DHT22;24035;48.900;9.188;2024-03-22T13:29:07;20.30;99.90
38239;DHT22;24035;48.900;9.188;2024-03-22T13:31:33;20.30;99.90
38239;DHT22;24035;48.900;9.188;2024-03-22T13:33:58;20.30;99.90
38239;DHT22;24035;48.900;9.188;2024-03-22T13:36:24;20.10;99.90
38239;DHT22;24035;48.900;9.188;2024-03-22T13:38:51;20.30;99.90
38239;DHT22;24035;48.900;9.188;2024-03-22T13:41:17;20.60;99.90
38239;DHT22;24035;48.900;9.188;2024-03-22T13:43:42;20.50;99.90
38239;DHT22;24035;48.900;9.188;2024-03-22T13:46:10;20.30;99.90
38239;DHT22;24035;48.900;9.188;2024-03-22T13:48:40;20.00;99.90
38239;DHT22;24035;48.900;9.188;2024-03-22T13:51:05;20.00;99.90
38239;DHT22;24035;48.900;9.188;2024-03-22T13:53:31;20.00;99.90
38239;DHT22;24035;48.900;9.188;2024-03-22T13:55:57;19.80;99.90
38239;DHT22;24035;48.900;9.188;2024-03-22T13:58:22;19.60;99.90
38239;DHT22;24035;48.900;9.188;2024-03-22T14:00:48;19.40;99.90
38239;DHT22;24035;48.900;9.188;2024-03-22T14:03:14;19.30;99.90
38239;DHT22;24035;48.900;9.188;2024-03-22T14:05:40;19.30;99.90
38239;DHT22;24035;48.900;9.188;2024-03-22T14:08:06;19.30;99.90
38239;DHT22;24035;48.900;9.188;2024-03-22T14:10:31;19.20;99.90
38239;DHT22;24035;48.900;9.188;2024-03-22T14:12:58;19.40;99.90
38239;DHT22;24035;48.900;9.188;2024-03-22T14:15:24;19.30;99.90
38239;DHT22;24035;48.900;9.188;2024-03-22T14:17:52;19.20;99.90
38239;DHT22;24035;48.900;9.188;2024-03-22T14:20:18;19.10;99.90
38239;DHT22;24035;48.900;9.188;2024-03-22T14:22:44;19.00;99.90
38239;DHT22;24035;48.900;9.188;2024-03-22T14:25:10;18.80;99.90
38239;DHT22;24035;48.900;9.188;2024-03-22T14:27:36;18.60;99.90
38239;DHT22;24035;48.900;9.188;2024-03-22T14:30:03;18.40;99.90
38239;DHT22;24035;48.900;9.188;2024-03-22T14:32:33;18.30;99.90
38239;DHT22;24035;48.900;9.188;2024-03-22T14:34:58;18.40;99.90
38239;DHT22;24035;48.900;9.188;2024-03-22T14:37:24;18.40;99.90
38239;DHT22;24035;48.900;9.188;2024-03-22T14:39:50;18.30;99.90
38239;DHT22;24035;48.900;9.188;2024-03-22T14:42:15;18.40;99.90
38239;DHT22;24035;48.900;9.188;2024-03-22T14:44:41;18.50;99.90
38239;DHT22;24035;48.900;9.188;2024-03-22T14:47:07;18.30;99.90
38239;DHT22;24035;48.900;9.188;2024-03-22T14:49:32;18.30;99.90
38239;DHT22;24035;48.900;9.188;2024-03-22T14:51:58;18.20;99.90
38239;DHT22;24035;48.900;9.188;2024-03-22T14:54:24;18.20;99.90
38239;DHT22;24035;48.900;9.188;2024-03-22T14:56:49;18.10;99.90
38239;DHT22;24035;48.900;9.188;2024-03-22T14:59:15;17.90;99.90
38239;DHT22;24035;48.900;9.188;2024-03-22T15:01:41;17.90;99.90
38239;DHT22;24035;48.900;9.188;2024-03-22T15:04:07;17.80;99.90
38239;DHT22;24035;48.900;9.188;2024-03-22T15:06:33;17.80;99.90
38239;DHT22;24035;48.900;9.188;2024-03-22T15:08:59;17.80;99.90
38239;DHT22;24035;48.900;9.188;2024-03-22T15:11:30;17.80;99.90
38239;DHT22;24035;48.900;9.188;2024-03-22T15:13:56;17.80;99.90
38239;DHT22;24035;48.900;9.188;2024-03-22T15:16:22;17.80;99.90
38239;DHT22;24035;48.900;9.188;2024-03-22T15:18:47;17.80;99.90
38239;DHT22;24035;48.900;9.188;2024-03-22T15:21:13;17.80;99.90
38239;DHT22;24035;48.900;9.188;2024-03-22T15:23:39;17.90;99.90
38239;DHT22;24035;48.900;9.188;2024-03-22T15:26:06;17.90;99.90
38239;DHT22;24035;48.900;9.188;2024-03-22T15:28:33;17.90;99.90
38239;DHT22;24035;48.900;9.188;2024-03-22T15:30:59;17.70;99.90
38239;DHT22;24035;48.900;9.188;2024-03-22T15:33:25;17.60;99.90
38239;DHT22;24035;48.900;9.188;2024-03-22T15:35:51;17.60;99.90
38239;DHT22;24035;48.900;9.188;2024-03-22T15:38:17;17.60;99.90
38239;DHT22;24035;48.900;9.188;2024-03-22T15:40:43;17.60;99.90